Time;durP1;ratioP1;P1;durP2;ratioP2;P2;SDS_P1;SDS_P2;PMS_P1;PMS_P2;Temp;Humidity;BMP_temperature;BMP_pressure;BME280_temperature;BME280_humidity;BME280_pressure;Samples;Min_cycle;Max_cycle;Signal;HPM_P1;HPM_P2
2022/04/11 00:02:26;;;;;;;12.90;8.60;;;;;;;-150.27;100.00;61272.81;5245309;28;20398;-68
2022/04/11 00:04:57;;;;;;;14.17;9.00;;;;;;;-150.27;100.00;61272.81;5252423;28;20035;-68
2022/04/11 00:07:29;;;;;;;12.40;8.43;;;;;;;-150.27;100.00;61272.81;5243237;28;20033;-68
2022/04/11 00:10:00;;;;;;;11.43;8.00;;;;;;;-150.27;100.00;61272.81;5249048;28;20083;-69
2022/04/11 00:12:34;;;;;;;13.93;9.07;;;;;;;-150.27;100.00;61272.81;5241880;28;20076;-68
2022/04/11 00:15:07;;;;;;;10.93;8.48;;;;;;;-150.27;100.00;61272.81;5224290;28;20029;-68
2022/04/11 00:17:38;;;;;;;12.43;9.30;;;;;;;-150.27;100.00;61272.81;5205432;28;20056;-68
2022/04/11 00:20:09;;;;;;;11.33;8.40;;;;;;;-150.27;100.00;61272.81;5232193;28;20025;-68
2022/04/11 00:22:41;;;;;;;12.53;9.47;;;;;;;-150.27;100.00;61272.81;5215628;28;20164;-68
2022/04/11 00:25:12;;;;;;;12.50;9.70;;;;;;;-150.27;100.00;61272.81;5233104;28;20041;-68
2022/04/11 00:27:43;;;;;;;17.43;10.03;;;;;;;-150.27;100.00;61272.81;5232364;28;20053;-68
2022/04/11 00:30:15;;;;;;;19.60;9.93;;;;;;;-150.27;100.00;61272.81;5233481;28;20033;-68
2022/04/11 00:32:46;;;;;;;14.43;8.83;;;;;;;-150.27;100.00;61272.81;5230355;28;20030;-68
2022/04/11 00:35:17;;;;;;;13.80;8.70;;;;;;;-150.27;100.00;61272.81;5231613;28;20040;-68
2022/04/11 00:37:49;;;;;;;12.03;8.67;;;;;;;-150.27;100.00;61272.81;5233028;28;20100;-68
2022/04/11 00:40:20;;;;;;;16.43;9.30;;;;;;;-150.27;100.00;61272.81;5231456;28;20479;-68
2022/04/11 00:42:51;;;;;;;13.90;8.77;;;;;;;-150.27;100.00;61272.81;5220577;28;20064;-68
2022/04/11 00:45:23;;;;;;;17.53;9.67;;;;;;;-150.27;100.00;61272.81;5229215;28;20041;-68
2022/04/11 00:47:54;;;;;;;12.97;9.03;;;;;;;-150.27;100.00;61272.81;5224478;28;20057;-68
2022/04/11 00:50:25;;;;;;;17.37;9.37;;;;;;;-150.27;100.00;61272.81;5232496;28;20435;-68
2022/04/11 00:52:59;;;;;;;20.10;9.70;;;;;;;-150.27;100.00;61272.81;5221516;28;20022;-68
2022/04/11 00:55:30;;;;;;;20.20;10.03;;;;;;;-150.27;100.00;61272.81;5232038;28;20041;-68
2022/04/11 00:58:01;;;;;;;18.70;10.67;;;;;;;-150.27;100.00;61272.81;5215193;28;20431;-68
2022/04/11 01:00:34;;;;;;;27.13;12.67;;;;;;;-150.27;100.00;61272.81;5227665;28;20018;-68
2022/04/11 01:03:05;;;;;;;22.67;11.27;;;;;;;-150.27;100.00;61272.81;5229790;28;20036;-68
2022/04/11 01:05:37;;;;;;;19.13;10.90;;;;;;;-150.27;100.00;61272.81;5226485;28;20443;-68
2022/04/11 01:08:10;;;;;;;21.87;10.10;;;;;;;-150.27;100.00;61272.81;5232401;28;20431;-68
2022/04/11 01:10:41;;;;;;;21.80;10.97;;;;;;;-150.27;100.00;61272.81;5231981;28;20468;-68
2022/04/11 01:13:13;;;;;;;22.67;10.70;;;;;;;-150.27;100.00;61272.81;5229182;28;20124;-68
2022/04/11 01:16:03;;;;;;;19.53;11.07;;;;;;;-150.27;100.00;61272.81;5224635;28;20098;-68
2022/04/11 01:18:38;;;;;;;16.20;9.83;;;;;;;-150.27;100.00;61272.81;5231108;28;20021;-68
2022/04/11 01:21:10;;;;;;;15.57;10.47;;;;;;;-150.27;100.00;61272.81;5232481;28;20029;-68
2022/04/11 01:23:41;;;;;;;22.50;10.60;;;;;;;-150.27;100.00;61272.81;5207763;28;20025;-68
2022/04/11 01:26:14;;;;;;;18.47;10.77;;;;;;;-150.27;100.00;61272.81;5217544;28;20053;-68
2022/04/11 01:28:48;;;;;;;15.83;10.57;;;;;;;-150.27;100.00;61272.81;5230338;28;20013;-68
2022/04/11 01:31:19;;;;;;;14.53;9.70;;;;;;;-150.27;100.00;61272.81;5231996;28;20451;-68
2022/04/11 01:33:51;;;;;;;19.00;10.10;;;;;;;-150.27;100.00;61272.81;5222697;28;20036;-68
2022/04/11 01:36:22;;;;;;;15.13;9.87;;;;;;;-150.27;100.00;61272.81;5230251;28;20037;-68
2022/04/11 01:38:54;;;;;;;15.83;10.33;;;;;;;-150.27;100.00;61272.81;5227879;28;20037;-68
2022/04/11 01:41:25;;;;;;;19.50;8.97;;;;;;;-150.27;100.00;61272.81;5230479;28;21055;-68
2022/04/11 01:43:56;;;;;;;15.80;9.50;;;;;;;-150.27;100.00;61272.81;5224554;28;20507;-68
2022/04/11 01:46:28;;;;;;;13.50;9.90;;;;;;;-150.27;100.00;61272.81;5231650;28;20033;-68
2022/04/11 01:48:59;;;;;;;10.43;8.03;;;;;;;-150.27;100.00;61272.81;5230406;28;20119;-68
2022/04/11 01:51:30;;;;;;;12.93;10.40;;;;;;;-150.27;100.00;61272.81;5228130;28;20036;-68
2022/04/11 01:54:01;;;;;;;13.07;10.00;;;;;;;-150.27;100.00;61272.81;5225213;28;20021;-68
2022/04/11 01:56:33;;;;;;;13.73;9.80;;;;;;;-150.27;100.00;61272.81;5227437;28;20037;-68
2022/04/11 01:59:04;;;;;;;15.13;9.53;;;;;;;-150.27;100.00;61272.81;5230540;28;20075;-68
2022/04/11 02:01:35;;;;;;;15.20;9.57;;;;;;;-150.27;100.00;61272.81;5229966;28;20030;-68
2022/04/11 02:04:07;;;;;;;15.53;9.90;;;;;;;-150.27;100.00;61272.81;5229077;28;20083;-68
2022/04/11 02:06:38;;;;;;;9.93;8.43;;;;;;;-150.27;100.00;61272.81;5230269;28;20211;-68
2022/04/11 02:09:09;;;;;;;11.63;8.50;;;;;;;-150.27;100.00;61272.81;5231597;28;20040;-68
2022/04/11 02:11:40;;;;;;;12.97;8.90;;;;;;;-150.27;100.00;61272.81;5206218;28;20022;-68
2022/04/11 02:14:12;;;;;;;12.53;9.20;;;;;;;-150.27;100.00;61272.81;5228394;28;20098;-68
2022/04/11 02:16:43;;;;;;;12.10;9.13;;;;;;;-150.27;100.00;61272.81;5212242;28;20044;-69
2022/04/11 02:19:14;;;;;;;13.40;8.63;;;;;;;-150.27;100.00;61272.81;5228171;28;20072;-68
2022/04/11 02:21:45;;;;;;;13.93;9.40;;;;;;;-150.27;100.00;61272.81;5200193;28;20017;-68
2022/04/11 02:24:17;;;;;;;13.47;10.23;;;;;;;-150.27;100.00;61272.81;5228825;28;20069;-68
2022/04/11 02:26:48;;;;;;;11.30;8.87;;;;;;;-150.27;100.00;61272.81;5217386;28;20439;-68
2022/04/11 02:29:19;;;;;;;13.40;8.50;;;;;;;-150.27;100.00;61272.81;5230619;28;20041;-68
2022/04/11 02:31:50;;;;;;;11.43;9.23;;;;;;;-150.27;100.00;61272.81;5228457;28;20026;-68
2022/04/11 02:34:25;;;;;;;11.00;8.37;;;;;;;-150.27;100.00;61272.81;5230875;28;20412;-68
2022/04/11 02:36:56;;;;;;;10.32;8.50;;;;;;;-150.27;100.00;61272.81;5230217;28;20100;-68
2022/04/11 02:39:27;;;;;;;12.23;9.07;;;;;;;-150.27;100.00;61272.81;5229144;28;20630;-68
2022/04/11 02:41:58;;;;;;;10.50;8.97;;;;;;;-150.27;100.00;61272.81;5223160;28;20493;-68
2022/04/11 02:44:30;;;;;;;16.30;10.13;;;;;;;-150.27;100.00;61272.81;5227447;28;20037;-68
2022/04/11 02:47:01;;;;;;;13.23;9.30;;;;;;;-150.27;100.00;61272.81;5224472;28;20055;-68
2022/04/11 02:49:32;;;;;;;17.03;10.63;;;;;;;-150.27;100.00;61272.81;5211133;28;20036;-68
2022/04/11 02:52:04;;;;;;;11.00;9.50;;;;;;;-150.27;100.00;61272.81;5227482;28;20059;-68
2022/04/11 02:54:37;;;;;;;11.60;8.90;;;;;;;-150.27;100.00;61272.81;5226194;28;20080;-68
2022/04/11 02:57:08;;;;;;;9.63;8.63;;;;;;;-150.27;100.00;61272.81;5228443;28;20393;-68
2022/04/11 02:59:39;;;;;;;14.27;9.60;;;;;;;-150.27;100.00;61272.81;5230537;28;20041;-68
2022/04/11 03:02:11;;;;;;;15.10;9.30;;;;;;;-150.27;100.00;61272.81;5218018;28;20488;-68
2022/04/11 03:04:42;;;;;;;12.57;10.00;;;;;;;-150.27;100.00;61272.81;5228742;28;20511;-68
2022/04/11 03:07:13;;;;;;;11.17;9.27;;;;;;;-150.27;100.00;61272.81;5206160;28;20085;-68
2022/04/11 03:09:45;;;;;;;11.87;9.23;;;;;;;-150.27;100.00;61272.81;5206501;28;20029;-68
2022/04/11 03:12:17;;;;;;;12.27;8.93;;;;;;;-150.27;100.00;61272.81;5230177;28;20025;-68
2022/04/11 03:14:49;;;;;;;11.00;9.37;;;;;;;-150.27;100.00;61272.81;5221463;28;20067;-68
2022/04/11 03:17:20;;;;;;;10.83;9.47;;;;;;;-150.27;100.00;61272.81;5229741;28;20025;-68
2022/04/11 03:19:51;;;;;;;15.30;10.47;;;;;;;-150.27;100.00;61272.81;5221530;28;20108;-68
2022/04/11 03:22:22;;;;;;;12.77;9.40;;;;;;;-150.27;100.00;61272.81;5212257;28;20559;-68
2022/04/11 03:24:54;;;;;;;10.90;9.23;;;;;;;-150.27;100.00;61272.81;5224748;28;20044;-68
2022/04/11 03:27:25;;;;;;;9.83;8.67;;;;;;;-150.27;100.00;61272.81;5223958;28;20037;-68
2022/04/11 03:29:56;;;;;;;11.10;9.00;;;;;;;-150.27;100.00;61272.81;5228705;28;20033;-68
2022/04/11 03:32:28;;;;;;;11.93;8.63;;;;;;;-150.27;100.00;61272.81;5227103;28;20026;-68
2022/04/11 03:34:59;;;;;;;14.30;10.17;;;;;;;-150.27;100.00;61272.81;5222374;28;20026;-68
2022/04/11 03:37:30;;;;;;;15.37;9.70;;;;;;;-150.27;100.00;61272.81;5222153;28;20026;-68
2022/04/11 03:40:03;;;;;;;11.40;9.10;;;;;;;-150.27;100.00;61272.81;5230336;28;20017;-68
2022/04/11 03:42:34;;;;;;;15.40;10.10;;;;;;;-150.27;100.00;61272.81;5215751;28;20115;-68
2022/04/11 03:45:08;;;;;;;11.27;9.27;;;;;;;-150.27;100.00;61272.81;5227425;28;20052;-68
2022/04/11 03:47:39;;;;;;;11.35;9.55;;;;;;;-150.27;100.00;61272.81;5219036;28;20025;-68
2022/04/11 03:50:11;;;;;;;13.53;9.27;;;;;;;-150.27;100.00;61272.81;5227319;28;20068;-68
2022/04/11 03:52:42;;;;;;;13.97;8.73;;;;;;;-150.27;100.00;61272.81;5228833;28;20089;-68
2022/04/11 03:55:13;;;;;;;13.40;9.93;;;;;;;-150.27;100.00;61272.81;5227217;28;20054;-68
2022/04/11 03:57:45;;;;;;;12.53;9.63;;;;;;;-150.27;100.00;61272.81;5219489;28;20025;-68
2022/04/11 04:00:17;;;;;;;15.73;10.87;;;;;;;-150.27;100.00;61272.81;5226308;28;20025;-68
2022/04/11 04:02:48;;;;;;;10.80;9.30;;;;;;;-150.27;100.00;61272.81;5228939;28;20029;-68
2022/04/11 04:05:19;;;;;;;14.57;10.23;;;;;;;-150.27;100.00;61272.81;5225349;28;20089;-68
2022/04/11 04:07:50;;;;;;;13.43;10.80;;;;;;;-150.27;100.00;61272.81;5230212;28;20021;-68
2022/04/11 04:10:26;;;;;;;15.17;9.20;;;;;;;-150.27;100.00;61272.81;5229361;28;20025;-68
2022/04/11 04:12:58;;;;;;;13.40;10.27;;;;;;;-150.27;100.00;61272.81;5227970;28;20038;-68
2022/04/11 04:15:30;;;;;;;12.83;9.37;;;;;;;-150.27;100.00;61272.81;5215707;28;20300;-68
2022/04/11 04:18:01;;;;;;;12.30;9.73;;;;;;;-150.27;100.00;61272.81;5222240;28;20081;-68
2022/04/11 04:20:32;;;;;;;10.80;9.50;;;;;;;-150.27;100.00;61272.81;5233540;28;20033;-68
2022/04/11 04:23:04;;;;;;;13.10;9.90;;;;;;;-150.27;100.00;61272.81;5233036;28;20073;-68
2022/04/11 04:25:36;;;;;;;15.13;9.70;;;;;;;-150.27;100.00;61272.81;5227992;28;20075;-67
2022/04/11 04:28:07;;;;;;;11.13;9.20;;;;;;;-150.27;100.00;61272.81;5215305;28;20037;-68
2022/04/11 04:30:39;;;;;;;12.77;10.10;;;;;;;-150.27;100.00;61272.81;5232970;28;20059;-68
2022/04/11 04:33:12;;;;;;;17.43;10.10;;;;;;;-150.27;100.00;61272.81;5213129;28;20022;-68
2022/04/11 04:35:43;;;;;;;12.93;10.37;;;;;;;-150.27;100.00;61272.81;5214709;28;20444;-68
2022/04/11 04:38:15;;;;;;;17.27;10.57;;;;;;;-150.27;100.00;61272.81;5222724;28;20041;-68
2022/04/11 04:40:46;;;;;;;16.83;10.03;;;;;;;-150.27;100.00;61272.81;5218790;28;20445;-68
2022/04/11 04:43:18;;;;;;;13.23;10.07;;;;;;;-150.27;100.00;61272.81;5231724;28;20052;-68
2022/04/11 04:45:49;;;;;;;14.13;10.63;;;;;;;-150.27;100.00;61272.81;5230815;28;20488;-68
2022/04/11 04:48:20;;;;;;;14.57;9.97;;;;;;;-150.27;100.00;61272.81;5242545;28;20064;-68
2022/04/11 04:50:51;;;;;;;11.30;9.90;;;;;;;-150.27;100.00;61272.81;5251990;28;20537;-67
2022/04/11 04:53:23;;;;;;;12.33;10.20;;;;;;;-150.27;100.00;61272.81;5227425;28;20056;-67
2022/04/11 04:55:54;;;;;;;12.73;9.67;;;;;;;-150.27;100.00;61272.81;5245925;28;20029;-68
2022/04/11 04:58:25;;;;;;;14.90;10.30;;;;;;;-150.27;100.00;61272.81;5253219;28;20025;-68
2022/04/11 05:00:57;;;;;;;14.67;9.83;;;;;;;-150.27;100.00;61272.81;5242015;28;20108;-68
2022/04/11 05:03:28;;;;;;;18.23;11.73;;;;;;;-150.27;100.00;61272.81;5242431;28;20071;-67
2022/04/11 05:05:59;;;;;;;18.67;10.47;;;;;;;-150.27;100.00;61272.81;5246919;28;20794;-68
2022/04/11 05:08:32;;;;;;;15.30;10.40;;;;;;;-150.27;100.00;61272.81;5245159;28;20065;-68
2022/04/11 05:11:04;;;;;;;14.60;10.37;;;;;;;-150.27;100.00;61272.81;5233829;28;20021;-68
2022/04/11 05:13:35;;;;;;;17.73;10.43;;;;;;;-150.27;100.00;61272.81;5231941;28;20041;-67
2022/04/11 05:16:06;;;;;;;20.60;10.77;;;;;;;-150.27;100.00;61272.81;5231248;28;20044;-68
2022/04/11 05:18:37;;;;;;;18.93;9.80;;;;;;;-150.27;100.00;61272.81;5231457;28;20044;-68
2022/04/11 05:21:09;;;;;;;18.57;9.77;;;;;;;-150.27;100.00;61272.81;5238237;28;20083;-68
2022/04/11 05:23:41;;;;;;;17.20;9.93;;;;;;;-150.27;100.00;61272.81;5246100;28;20033;-68
2022/04/11 05:26:12;;;;;;;12.77;10.07;;;;;;;-150.27;100.00;61272.81;5242591;28;20033;-68
2022/04/11 05:28:44;;;;;;;14.47;10.53;;;;;;;-150.27;100.00;61272.81;5242235;28;20891;-68
2022/04/11 05:31:16;;;;;;;12.63;10.30;;;;;;;-150.27;100.00;61272.81;5236249;28;20543;-68
2022/04/11 05:33:47;;;;;;;12.73;9.77;;;;;;;-150.27;100.00;61272.81;5237450;28;20044;-68
2022/04/11 05:36:19;;;;;;;12.23;9.83;;;;;;;-150.27;100.00;61272.81;5231079;28;20033;-68
2022/04/11 05:38:50;;;;;;;16.07;10.43;;;;;;;-150.27;100.00;61272.81;5246955;28;20032;-68
2022/04/11 05:41:21;;;;;;;10.37;8.57;;;;;;;-150.27;100.00;61272.81;5237165;28;20040;-68
2022/04/11 05:43:52;;;;;;;16.90;9.90;;;;;;;-150.27;100.00;61272.81;5236615;28;20029;-68
2022/04/11 05:46:24;;;;;;;17.90;10.20;;;;;;;-150.27;100.00;61272.81;5215869;28;20041;-68
2022/04/11 05:48:55;;;;;;;21.07;11.60;;;;;;;-150.27;100.00;61272.81;5243587;28;20037;-68
2022/04/11 05:51:27;;;;;;;15.50;10.27;;;;;;;-150.27;100.00;61272.81;5251811;28;20062;-68
2022/04/11 05:53:59;;;;;;;14.20;9.60;;;;;;;-150.27;100.00;61272.81;5237644;28;20029;-68
2022/04/11 05:56:30;;;;;;;14.63;9.20;;;;;;;-150.27;100.00;61272.81;5241358;28;20024;-68
2022/04/11 05:59:03;;;;;;;16.23;9.73;;;;;;;-150.27;100.00;61272.81;5251183;28;20147;-68
2022/04/11 06:01:35;;;;;;;14.50;9.30;;;;;;;-150.27;100.00;61272.81;5225268;28;20038;-69
2022/04/11 06:04:06;;;;;;;14.27;9.37;;;;;;;-150.27;100.00;61272.81;5244606;28;20755;-68
2022/04/11 06:06:38;;;;;;;11.00;9.10;;;;;;;-150.27;100.00;61272.81;5244500;28;20084;-67
2022/04/11 06:09:09;;;;;;;10.77;9.03;;;;;;;-150.27;100.00;61272.81;5226115;28;20041;-68
2022/04/11 06:11:40;;;;;;;12.40;9.23;;;;;;;-150.27;100.00;61272.81;5244516;28;20143;-67
2022/04/11 06:14:11;;;;;;;15.00;9.40;;;;;;;-150.27;100.00;61272.81;5233726;28;20053;-68
2022/04/11 06:16:43;;;;;;;15.53;8.03;;;;;;;-150.27;100.00;61272.81;5228253;28;20029;-68
2022/04/11 06:19:15;;;;;;;13.47;8.67;;;;;;;-150.27;100.00;61272.81;5213009;28;20092;-68
2022/04/11 06:21:46;;;;;;;13.87;8.67;;;;;;;-150.27;100.00;61272.81;5230210;28;20029;-68
2022/04/11 06:24:17;;;;;;;14.03;8.97;;;;;;;-150.27;100.00;61272.81;5241161;28;20033;-68
2022/04/11 06:26:48;;;;;;;13.80;7.80;;;;;;;-150.27;100.00;61272.81;5232256;28;20142;-68
2022/04/11 06:29:19;;;;;;;10.50;7.67;;;;;;;-150.27;100.00;61272.81;5249826;28;20035;-68
2022/04/11 06:31:51;;;;;;;13.43;8.70;;;;;;;-150.27;100.00;61272.81;5226176;28;20078;-67
2022/04/11 06:34:22;;;;;;;10.70;7.63;;;;;;;-150.27;100.00;61272.81;5231933;28;20575;-68
2022/04/11 06:36:53;;;;;;;12.07;7.57;;;;;;;-150.27;100.00;61272.81;5206745;28;20068;-68
2022/04/11 06:39:24;;;;;;;12.13;7.63;;;;;;;-150.27;100.00;61272.81;5209695;28;20025;-68
2022/04/11 06:41:56;;;;;;;11.90;6.43;;;;;;;-150.27;100.00;61272.81;5214614;28;20396;-68
2022/04/11 06:44:28;;;;;;;14.03;7.70;;;;;;;-150.27;100.00;61272.81;5230574;28;20040;-68
2022/04/11 06:46:59;;;;;;;14.67;8.70;;;;;;;-150.27;100.00;61272.81;5227899;28;20019;-68
2022/04/11 06:49:30;;;;;;;8.70;6.73;;;;;;;-150.27;100.00;61272.81;5229155;28;20040;-68
2022/04/11 06:52:02;;;;;;;10.37;6.30;;;;;;;-150.27;100.00;61272.81;5213045;28;20042;-68
2022/04/11 06:54:33;;;;;;;7.73;6.07;;;;;;;-150.27;100.00;61272.81;5212466;28;20044;-70
2022/04/11 06:57:05;;;;;;;10.77;6.10;;;;;;;-150.27;100.00;61272.81;5217696;28;20045;-68
2022/04/11 06:59:36;;;;;;;8.67;6.33;;;;;;;-150.27;100.00;61272.81;5215029;28;20103;-68
2022/04/11 07:02:07;;;;;;;9.83;5.90;;;;;;;-150.27;100.00;61272.81;5229106;28;20037;-68
2022/04/11 07:04:38;;;;;;;11.90;6.87;;;;;;;-150.27;100.00;61272.81;5221914;28;20124;-69
2022/04/11 07:07:10;;;;;;;8.40;6.10;;;;;;;-150.27;100.00;61272.81;5228456;28;20087;-69
2022/04/11 07:09:41;;;;;;;9.27;5.50;;;;;;;-150.27;100.00;61272.81;5219067;28;20037;-70
2022/04/11 07:12:13;;;;;;;9.83;5.73;;;;;;;-150.27;100.00;61272.81;5224141;28;20152;-71
2022/04/11 07:14:44;;;;;;;8.97;6.40;;;;;;;-150.27;100.00;61272.81;5220467;28;20496;-69
2022/04/11 07:17:15;;;;;;;8.17;5.70;;;;;;;-150.27;100.00;61272.81;5220827;28;20053;-68
2022/04/11 07:19:46;;;;;;;8.00;5.90;;;;;;;-150.27;100.00;61272.81;5207328;28;20119;-67
2022/04/11 07:22:21;;;;;;;12.03;6.20;;;;;;;-150.27;100.00;61272.81;5216297;28;20036;-68
2022/04/11 07:24:52;;;;;;;;;;;;;;;-150.27;100.00;61272.81;5229867;28;20837;-68
2022/04/11 07:27:24;;;;;;;9.57;5.53;;;;;;;-150.27;100.00;61272.81;5233496;28;19995;-67
2022/04/11 07:29:55;;;;;;;11.70;6.07;;;;;;;-150.27;100.00;61272.81;5228644;28;20082;-67
2022/04/11 07:32:26;;;;;;;11.70;6.20;;;;;;;-150.27;100.00;61272.81;5234552;28;20046;-67
2022/04/11 07:34:58;;;;;;;15.10;7.17;;;;;;;-150.27;100.00;61272.81;5228975;28;20025;-67
2022/04/11 07:37:32;;;;;;;9.07;5.57;;;;;;;-150.27;100.00;61272.81;5232152;28;20057;-65
2022/04/11 07:40:03;;;;;;;7.30;5.03;;;;;;;-150.27;100.00;61272.81;5185290;28;20056;-68
2022/04/11 07:42:35;;;;;;;9.23;4.77;;;;;;;-150.27;100.00;61272.81;5192879;28;20073;-70
2022/04/11 07:45:07;;;;;;;7.43;4.30;;;;;;;-150.27;100.00;61272.81;5193333;28;20846;-69
2022/04/11 07:47:38;;;;;;;9.97;4.40;;;;;;;-150.27;100.00;61272.81;5229722;28;20503;-69
2022/04/11 07:50:10;;;;;;;5.87;4.60;;;;;;;-150.27;100.00;61272.81;5218702;28;20021;-69
2022/04/11 07:52:43;;;;;;;10.20;4.73;;;;;;;-150.27;100.00;61272.81;5241638;28;20058;-69
2022/04/11 07:55:17;;;;;;;8.87;4.00;;;;;;;-150.27;100.00;61272.81;5232723;28;20041;-69
2022/04/11 07:57:48;;;;;;;6.35;3.90;;;;;;;-150.27;100.00;61272.81;5247296;28;20080;-68
2022/04/11 08:00:21;;;;;;;8.97;4.17;;;;;;;-150.27;100.00;61272.81;5250471;28;20021;-70
2022/04/11 08:02:54;;;;;;;8.77;3.83;;;;;;;-150.27;100.00;61272.81;5233666;28;20036;-69
2022/04/11 08:05:25;;;;;;;8.03;3.80;;;;;;;-150.27;100.00;61272.81;5238284;28;20138;-69
2022/04/11 08:07:56;;;;;;;7.07;3.83;;;;;;;-150.27;100.00;61272.81;5246027;28;20053;-69
2022/04/11 08:10:28;;;;;;;8.07;3.33;;;;;;;-150.27;100.00;61272.81;5230647;28;20033;-69
2022/04/11 08:13:00;;;;;;;6.30;3.50;;;;;;;-150.27;100.00;61272.81;5249725;28;20032;-69
2022/04/11 08:15:32;;;;;;;7.10;3.60;;;;;;;-150.27;100.00;61272.81;5211031;28;20017;-69
2022/04/11 08:18:04;;;;;;;15.73;3.97;;;;;;;-150.27;100.00;61272.81;5234270;28;20064;-67
2022/04/11 08:20:35;;;;;;;9.87;3.47;;;;;;;-150.27;100.00;61272.81;5218154;28;20499;-67
2022/04/11 08:23:06;;;;;;;8.00;3.63;;;;;;;-150.27;100.00;61272.81;5232824;28;20030;-68
2022/04/11 08:25:37;;;;;;;7.43;3.27;;;;;;;-150.27;100.00;61272.81;5229816;28;20029;-68
2022/04/11 08:28:09;;;;;;;6.87;3.40;;;;;;;-150.27;100.00;61272.81;5232847;28;20095;-68
2022/04/11 08:30:40;;;;;;;8.27;4.10;;;;;;;-150.27;100.00;61272.81;5215475;28;20124;-68
2022/04/11 08:33:12;;;;;;;5.47;2.93;;;;;;;-150.27;100.00;61272.81;5233124;28;20768;-68
2022/04/11 08:35:43;;;;;;;9.37;3.73;;;;;;;-150.27;100.00;61272.81;5228220;28;20040;-68
2022/04/11 08:38:14;;;;;;;6.33;3.43;;;;;;;-150.27;100.00;61272.81;5233934;28;20049;-68
2022/04/11 08:40:46;;;;;;;8.37;3.63;;;;;;;-150.27;100.00;61272.81;5235949;28;20025;-69
2022/04/11 08:43:22;;;;;;;6.63;2.97;;;;;;;-150.27;100.00;61272.81;5242106;28;20543;-68
2022/04/11 08:45:54;;;;;;;5.27;3.20;;;;;;;-150.27;100.00;61272.81;5240102;28;20029;-68
2022/04/11 08:48:25;;;;;;;8.10;3.60;;;;;;;-150.27;100.00;61272.81;5246715;28;20697;-68
2022/04/11 08:50:58;;;;;;;5.40;2.73;;;;;;;-150.27;100.00;61272.81;5249737;28;20104;-69
2022/04/11 08:53:30;;;;;;;8.70;3.13;;;;;;;-150.27;100.00;61272.81;5242509;28;20033;-68
2022/04/11 08:56:01;;;;;;;7.80;3.07;;;;;;;-150.27;100.00;61272.81;5245648;28;20041;-69
2022/04/11 08:58:32;;;;;;;7.07;2.70;;;;;;;-150.27;100.00;61272.81;5245267;28;20075;-69
2022/04/11 09:01:04;;;;;;;9.13;2.63;;;;;;;-150.27;100.00;61272.81;5240802;28;20040;-69
2022/04/11 09:03:35;;;;;;;7.00;2.43;;;;;;;-150.27;100.00;61272.81;5235846;28;20100;-68
2022/04/11 09:06:09;;;;;;;5.82;1.90;;;;;;;-150.27;100.00;61272.81;5239372;28;20071;-70
2022/04/11 09:08:51;;;;;;;5.13;2.13;;;;;;;-150.27;100.00;61272.81;5248018;28;20036;-70
2022/04/11 09:11:29;;;;;;;4.80;1.88;;;;;;;-150.27;100.00;61272.81;5246239;28;20675;-71
2022/04/11 09:14:04;;;;;;;7.72;2.10;;;;;;;-150.27;100.00;61272.81;5228408;28;20034;-71
2022/04/11 09:16:53;;;;;;;7.43;1.92;;;;;;;-150.27;100.00;61272.81;5211345;28;20025;-72
2022/04/11 09:19:26;;;;;;;5.20;2.22;;;;;;;-150.27;100.00;61272.81;5230982;28;20021;-72
2022/04/11 09:21:58;;;;;;;5.97;1.67;;;;;;;-150.27;100.00;61272.81;5213639;28;20087;-71
2022/04/11 09:24:31;;;;;;;5.82;2.05;;;;;;;-150.27;100.00;61272.81;5209868;28;20041;-72
2022/04/11 09:27:04;;;;;;;5.55;2.10;;;;;;;-150.27;100.00;61272.81;5242632;28;20083;-71
2022/04/11 09:29:42;;;;;;;7.28;2.17;;;;;;;-150.27;100.00;61272.81;5244031;28;20506;-71
2022/04/11 09:32:13;;;;;;;5.68;2.03;;;;;;;-150.27;100.00;61272.81;5227311;28;20197;-71
2022/04/11 09:34:53;;;;;;;6.10;2.22;;;;;;;-150.27;100.00;61272.81;5241458;28;20075;-69
2022/04/11 09:37:24;;;;;;;6.88;2.95;;;;;;;-150.27;100.00;61272.81;5217458;28;20061;-69
2022/04/11 09:39:59;;;;;;;5.35;2.50;;;;;;;-150.27;100.00;61272.81;5226410;28;20108;-69
2022/04/11 09:42:33;;;;;;;5.95;2.08;;;;;;;-150.27;100.00;61272.81;5241979;28;20522;-69
2022/04/11 09:45:04;;;;;;;9.70;2.30;;;;;;;-150.27;100.00;61272.81;5234424;28;20677;-69
2022/04/11 09:47:36;;;;;;;3.45;1.80;;;;;;;-150.27;100.00;61272.81;5233302;28;20034;-69
2022/04/11 09:50:09;;;;;;;5.93;2.25;;;;;;;-150.27;100.00;61272.81;5237351;28;20021;-69
2022/04/11 09:52:41;;;;;;;6.10;2.28;;;;;;;-150.27;100.00;61272.81;5226212;28;20029;-69
2022/04/11 09:55:13;;;;;;;7.50;2.53;;;;;;;-150.27;100.00;61272.81;5221014;28;20082;-70
2022/04/11 09:57:45;;;;;;;6.95;2.30;;;;;;;-150.27;100.00;61272.81;5242327;28;20029;-69
2022/04/11 10:00:17;;;;;;;4.93;2.20;;;;;;;-150.27;100.00;61272.81;5231462;28;20108;-68
2022/04/11 10:02:49;;;;;;;5.22;2.60;;;;;;;-150.27;100.00;61272.81;5235380;28;20033;-71
2022/04/11 10:05:20;;;;;;;6.60;2.47;;;;;;;-150.27;100.00;61272.81;5236625;28;20045;-69
2022/04/11 10:07:54;;;;;;;7.18;2.45;;;;;;;-150.27;100.00;61272.81;5242756;28;20045;-69
2022/04/11 10:10:25;;;;;;;4.35;1.95;;;;;;;-150.27;100.00;61272.81;5236246;28;20032;-69
2022/04/11 10:12:57;;;;;;;3.28;1.80;;;;;;;-150.27;100.00;61272.81;5229408;28;20022;-70
2022/04/11 10:15:29;;;;;;;4.35;2.00;;;;;;;-150.27;100.00;61272.81;5225985;28;20508;-71
2022/04/11 10:18:01;;;;;;;6.57;2.20;;;;;;;-150.27;100.00;61272.81;5239995;28;20515;-70
2022/04/11 10:20:40;;;;;;;7.70;2.47;;;;;;;-150.27;100.00;61272.81;5234696;28;20087;-71
2022/04/11 10:23:37;;;;;;;4.50;2.45;;;;;;;-150.27;100.00;61272.81;5225642;28;20369;-71
2022/04/11 10:26:17;;;;;;;9.32;2.80;;;;;;;-150.27;100.00;61272.81;5213964;28;20083;-71
2022/04/11 10:28:53;;;;;;;4.78;2.40;;;;;;;-150.27;100.00;61272.81;5248375;28;20108;-68
2022/04/11 10:31:35;;;;;;;6.70;2.30;;;;;;;-150.27;100.00;61272.81;5228721;28;20018;-71
2022/04/11 10:34:06;;;;;;;6.47;2.33;;;;;;;-150.27;100.00;61272.81;5214583;28;20120;-71
2022/04/11 10:36:38;;;;;;;7.75;3.03;;;;;;;-150.27;100.00;61272.81;5244670;28;20112;-70
2022/04/11 10:39:13;;;;;;;5.43;2.63;;;;;;;-150.27;100.00;61272.81;5247772;28;20033;-69
2022/04/11 10:41:56;;;;;;;5.90;2.38;;;;;;;-150.27;100.00;61272.81;5240840;28;20041;-69
2022/04/11 10:44:39;;;;;;;5.82;2.40;;;;;;;-150.27;100.00;61272.81;5228756;28;20519;-70
2022/04/11 10:47:10;;;;;;;6.45;2.70;;;;;;;-150.27;100.00;61272.81;5237332;28;20026;-69
2022/04/11 10:49:44;;;;;;;7.20;3.17;;;;;;;-150.27;100.00;61272.81;5230948;28;20510;-70
2022/04/11 10:52:32;;;;;;;4.03;2.55;;;;;;;-150.27;100.00;61272.81;5231709;28;20037;-69
2022/04/11 10:55:09;;;;;;;8.45;2.72;;;;;;;-150.27;100.00;61272.81;5223168;28;20128;-69
2022/04/11 10:57:43;;;;;;;4.88;2.60;;;;;;;-150.27;100.00;61272.81;5231944;28;20033;-69
2022/04/11 11:00:17;;;;;;;8.00;2.90;;;;;;;-150.27;100.00;61272.81;5240894;28;20529;-69
2022/04/11 11:02:59;;;;;;;;;;;;;;;-150.27;100.00;61272.81;5231850;28;20014;-69
2022/04/11 11:05:40;;;;;;;7.03;3.00;;;;;;;-150.27;100.00;61272.81;5229396;28;20299;-70
2022/04/11 11:08:15;;;;;;;7.23;3.23;;;;;;;-150.27;100.00;61272.81;5226310;28;20104;-70
2022/04/11 11:10:59;;;;;;;4.87;2.60;;;;;;;-150.27;100.00;61272.81;5231896;28;20017;-70
2022/04/11 11:13:36;;;;;;;6.43;2.63;;;;;;;-150.27;100.00;61272.81;5231174;28;20041;-70
2022/04/11 11:16:07;;;;;;;5.40;2.70;;;;;;;-150.27;100.00;61272.81;5228678;28;20698;-71
2022/04/11 11:18:51;;;;;;;4.70;2.77;;;;;;;-150.27;100.00;61272.81;5228596;28;20025;-69
2022/04/11 11:21:47;;;;;;;6.32;3.00;;;;;;;-150.27;100.00;61272.81;5230156;28;20083;-72
2022/04/11 11:24:19;;;;;;;7.70;3.40;;;;;;;-150.27;100.00;61272.81;5227351;28;20087;-70
2022/04/11 11:26:59;;;;;;;4.93;2.57;;;;;;;-150.27;100.00;61272.81;5229020;28;20017;-71
2022/04/11 11:29:34;;;;;;;8.17;3.07;;;;;;;-150.27;100.00;61272.81;5236829;28;20018;-71